Time;durP1;ratioP1;P1;durP2;ratioP2;P2;SDS_P1;SDS_P2;PMS_P1;PMS_P2;Temp;Humidity;BMP_temperature;BMP_pressure;BME280_temperature;BME280_humidity;BME280_pressure;Samples;Min_cycle;Max_cycle;Signal;HPM_P1;HPM_P2
2024/04/15 00:01:01;;;;;;;12.30;2.45;;;;;;;8.88;57.40;101369.25;5365517;26;20000;-48
2024/04/15 00:03:27;;;;;;;11.55;2.50;;;;;;;8.59;58.82;101363.38;5418162;26;20443;-53
2024/04/15 00:05:53;;;;;;;9.82;3.25;;;;;;;8.60;60.04;101366.88;5387217;26;20004;-54
2024/04/15 00:08:18;;;;;;;17.67;3.85;;;;;;;8.55;60.70;101366.38;5370605;26;20371;-56
2024/04/15 00:10:45;;;;;;;9.98;3.00;;;;;;;8.40;60.58;101365.66;5370431;26;20399;-56
2024/04/15 00:13:10;;;;;;;11.20;3.60;;;;;;;8.50;60.86;101363.19;5373411;26;19992;-57
2024/04/15 00:15:36;;;;;;;14.27;2.95;;;;;;;8.37;60.86;101356.06;5372634;26;20031;-51
2024/04/15 00:18:02;;;;;;;9.10;3.13;;;;;;;8.41;61.24;101359.38;5360343;26;20064;-54
2024/04/15 00:20:29;;;;;;;14.73;2.65;;;;;;;8.32;61.08;101355.56;5367585;26;20004;-52
2024/04/15 00:22:55;;;;;;;11.40;2.88;;;;;;;8.32;60.79;101347.59;5367559;26;20334;-55
2024/04/15 00:25:22;;;;;;;10.40;3.22;;;;;;;8.32;60.05;101346.75;5366103;26;20015;-57
2024/04/15 00:27:47;;;;;;;13.93;3.25;;;;;;;8.24;60.93;101335.81;5395161;26;20000;-53
2024/04/15 00:30:13;;;;;;;9.50;2.92;;;;;;;8.14;60.88;101321.50;5365889;26;20009;-49
2024/04/15 00:32:39;;;;;;;13.07;3.00;;;;;;;8.13;60.66;101320.63;5361030;26;20019;-55
2024/04/15 00:35:05;;;;;;;14.68;2.70;;;;;;;8.02;61.05;101312.56;5356719;26;20001;-48
2024/04/15 00:37:31;;;;;;;9.85;2.65;;;;;;;8.09;60.86;101308.53;5364435;26;20538;-53
2024/04/15 00:39:57;;;;;;;19.13;3.28;;;;;;;8.13;60.13;101296.75;5361220;26;20005;-54
2024/04/15 00:42:23;;;;;;;11.65;2.60;;;;;;;8.05;61.08;101297.25;5383926;26;20012;-52
2024/04/15 00:44:50;;;;;;;15.52;2.58;;;;;;;8.03;61.00;101299.16;5370510;26;19996;-50
2024/04/15 00:47:17;;;;;;;16.10;2.53;;;;;;;8.03;60.58;101293.03;5355416;26;20000;-52
2024/04/15 00:49:43;;;;;;;11.98;3.10;;;;;;;8.06;60.56;101285.69;5368479;26;20323;-53
2024/04/15 00:52:10;;;;;;;15.23;2.78;;;;;;;8.03;60.59;101271.78;5392880;26;20430;-52
2024/04/15 00:54:39;;;;;;;10.73;2.42;;;;;;;7.96;60.49;101268.72;5361728;26;20008;-53
2024/04/15 00:57:05;;;;;;;8.98;2.78;;;;;;;7.93;60.47;101266.25;5366290;26;20078;-54
2024/04/15 00:59:33;;;;;;;17.35;2.85;;;;;;;7.94;61.07;101267.13;5368581;26;20292;-51
2024/04/15 01:01:59;;;;;;;9.82;3.15;;;;;;;7.83;61.40;101262.53;5370647;26;20455;-54
2024/04/15 01:04:25;;;;;;;9.80;2.50;;;;;;;7.92;61.54;101261.06;5375428;26;20005;-51
2024/04/15 01:06:51;;;;;;;9.48;2.95;;;;;;;7.94;61.44;101257.34;5394860;26;20514;-58
2024/04/15 01:09:17;;;;;;;14.10;2.92;;;;;;;7.95;60.89;101237.81;5393167;26;20011;-56
2024/04/15 01:11:43;;;;;;;9.45;3.00;;;;;;;7.90;61.09;101234.63;5370199;26;20000;-53
2024/04/15 01:14:10;;;;;;;16.73;2.70;;;;;;;7.76;61.48;101237.38;5387836;26;20015;-51
2024/04/15 01:16:39;;;;;;;10.70;2.80;;;;;;;7.74;62.70;101225.22;5371194;26;20031;-48
2024/04/15 01:19:05;;;;;;;12.77;3.00;;;;;;;7.72;62.16;101220.00;5356239;26;20004;-51
2024/04/15 01:21:31;;;;;;;15.95;3.88;;;;;;;7.69;62.21;101217.56;5365886;26;20069;-52
2024/04/15 01:23:59;;;;;;;15.70;3.05;;;;;;;7.73;62.09;101207.59;5351429;26;20004;-54
2024/04/15 01:26:25;;;;;;;21.13;3.78;;;;;;;7.69;61.81;101204.31;5358257;26;20082;-48
2024/04/15 01:28:50;;;;;;;17.42;3.35;;;;;;;7.65;62.46;101192.19;5360748;26;20440;-52
2024/04/15 01:31:16;;;;;;;9.45;3.00;;;;;;;7.56;62.04;101196.34;5365139;26;20000;-51
2024/04/15 01:33:42;;;;;;;10.18;2.67;;;;;;;7.54;62.18;101189.47;5303286;26;19996;-54
2024/04/15 01:36:07;;;;;;;16.65;2.88;;;;;;;7.49;62.48;101183.59;5385995;26;20427;-53
2024/04/15 01:38:34;;;;;;;11.30;3.22;;;;;;;7.45;63.05;101177.69;5360570;26;20110;-52
2024/04/15 01:40:59;;;;;;;13.50;4.22;;;;;;;7.40;63.01;101171.00;5362150;26;20443;-50
2024/04/15 01:43:25;;;;;;;12.65;2.97;;;;;;;7.43;63.36;101170.78;5364006;26;19997;-51
2024/04/15 01:45:51;;;;;;;11.98;3.20;;;;;;;7.42;63.21;101163.81;5366826;26;20004;-55
2024/04/15 01:48:16;;;;;;;14.90;3.67;;;;;;;7.42;63.52;101161.16;5361762;26;20243;-49
2024/04/15 01:50:42;;;;;;;13.45;4.10;;;;;;;7.45;63.62;101163.56;5382020;26;20592;-51
2024/04/15 01:53:11;;;;;;;14.65;3.20;;;;;;;7.47;63.82;101151.06;5362453;26;20001;-50
2024/04/15 01:55:37;;;;;;;11.32;2.80;;;;;;;7.47;63.23;101151.91;5364160;26;20023;-52
2024/04/15 01:58:04;;;;;;;10.07;3.63;;;;;;;7.48;63.68;101152.75;5354976;26;20004;-49
2024/04/15 02:00:30;;;;;;;14.57;3.17;;;;;;;7.41;64.15;101149.69;5356172;26;20443;-50
2024/04/15 02:02:56;;;;;;;15.00;3.42;;;;;;;7.57;63.84;101141.47;5359006;26;20019;-55
2024/04/15 02:05:21;;;;;;;14.93;3.08;;;;;;;7.62;63.47;101129.59;5369691;26;20000;-51
2024/04/15 02:07:48;;;;;;;11.35;3.10;;;;;;;7.69;63.73;101134.47;5369087;26;20000;-54
2024/04/15 02:10:14;;;;;;;10.68;2.70;;;;;;;7.57;63.40;101114.97;5354290;26;20004;-53
2024/04/15 02:12:40;;;;;;;12.98;3.15;;;;;;;7.73;63.08;101115.56;5368779;26;20011;-52
2024/04/15 02:15:06;;;;;;;14.75;3.15;;;;;;;7.72;62.85;101108.56;5381298;26;20037;-50
2024/04/15 02:17:32;;;;;;;16.88;2.72;;;;;;;7.66;63.42;101104.56;5369496;26;20015;-54
2024/04/15 02:19:58;;;;;;;14.63;3.42;;;;;;;7.69;63.99;101106.16;5364909;26;19997;-53
2024/04/15 02:22:24;;;;;;;15.13;3.35;;;;;;;7.84;63.73;101096.22;5369116;26;20004;-49
2024/04/15 02:24:49;;;;;;;14.80;3.13;;;;;;;7.95;63.10;101089.19;5364994;26;20004;-54
2024/04/15 02:27:15;;;;;;;17.25;3.42;;;;;;;7.95;63.12;101075.91;5349059;26;20074;-52
2024/04/15 02:29:41;;;;;;;15.10;2.80;;;;;;;8.06;63.04;101075.09;5344796;26;20000;-51
2024/04/15 02:32:07;;;;;;;16.10;3.83;;;;;;;8.05;63.08;101068.94;5366849;26;20004;-52
2024/04/15 02:34:32;;;;;;;21.42;5.65;;;;;;;8.10;63.03;101057.97;5368941;26;20016;-53
2024/04/15 02:36:58;;;;;;;15.07;3.30;;;;;;;8.20;62.40;101064.34;5361844;26;20003;-56
2024/04/15 02:39:25;;;;;;;14.23;3.20;;;;;;;8.33;62.47;101058.97;5356507;26;20019;-57
2024/04/15 02:41:51;;;;;;;13.35;3.17;;;;;;;8.34;62.44;101048.22;5372017;26;20008;-49
2024/04/15 02:44:17;;;;;;;13.45;3.83;;;;;;;8.45;62.41;101050.06;5363365;26;20073;-57
2024/04/15 02:46:42;;;;;;;17.50;3.10;;;;;;;8.37;62.25;101047.16;5385992;26;20377;-53
2024/04/15 02:49:08;;;;;;;10.70;3.38;;;;;;;8.39;62.16;101030.13;5365551;26;20001;-55
2024/04/15 02:51:34;;;;;;;9.82;3.00;;;;;;;8.22;63.40;101041.19;5361495;26;20443;-53
2024/04/15 02:54:00;;;;;;;15.73;3.08;;;;;;;8.37;62.63;101047.16;5361045;26;20447;-52
2024/04/15 02:56:26;;;;;;;16.63;3.47;;;;;;;8.42;61.97;101042.34;5367889;26;20007;-57
2024/04/15 02:58:52;;;;;;;11.15;3.25;;;;;;;8.17;63.35;101034.53;5363801;26;20421;-52
2024/04/15 03:01:18;;;;;;;11.95;3.35;;;;;;;8.43;62.51;101028.09;5356651;26;20015;-50
2024/04/15 03:03:47;;;;;;;12.50;3.25;;;;;;;8.51;62.02;101028.34;5360405;26;19996;-57
2024/04/15 03:06:17;;;;;;;12.23;2.97;;;;;;;8.59;61.64;101033.06;5366026;26;20000;-58
2024/04/15 03:08:43;;;;;;;;;;;;;;;8.61;61.72;101034.66;5368696;26;20541;-59
2024/04/15 03:11:10;;;;;;;11.00;3.08;;;;;;;8.61;61.43;101018.72;5357794;26;20039;-48
2024/04/15 03:13:36;;;;;;;10.25;4.13;;;;;;;8.59;61.38;101022.44;5366999;26;20012;-53
2024/04/15 03:16:03;;;;;;;16.10;3.38;;;;;;;8.44;61.19;101016.53;5366852;26;20000;-55
2024/04/15 03:18:29;;;;;;;7.30;2.60;;;;;;;8.65;61.07;101006.88;5367875;26;20004;-54
2024/04/15 03:20:55;;;;;;;12.90;3.47;;;;;;;8.62;60.61;100995.66;5366494;26;20006;-54
2024/04/15 03:23:20;;;;;;;11.50;2.55;;;;;;;8.67;60.16;100996.13;5366238;26;20110;-55
2024/04/15 03:25:46;;;;;;;10.68;2.60;;;;;;;8.64;60.44;100983.97;5361296;26;19997;-56
2024/04/15 03:28:12;;;;;;;14.80;2.92;;;;;;;8.60;60.76;100978.97;5350677;26;20011;-49
2024/04/15 03:30:38;;;;;;;11.07;2.60;;;;;;;8.70;60.32;100975.50;5353075;26;20078;-52
2024/04/15 03:33:04;;;;;;;9.13;2.90;;;;;;;8.69;60.19;100967.66;5368804;26;20339;-53
2024/04/15 03:35:30;;;;;;;9.07;2.83;;;;;;;8.73;60.28;100958.47;5366970;26;19997;-56
2024/04/15 03:37:55;;;;;;;10.48;2.78;;;;;;;8.66;59.75;100955.44;5366063;26;20000;-53
2024/04/15 03:40:22;;;;;;;17.50;3.38;;;;;;;8.75;59.80;100954.72;5365265;26;20385;-53
2024/04/15 03:42:48;;;;;;;13.82;4.13;;;;;;;8.75;59.00;100949.41;5368216;26;20474;-51
2024/04/15 03:45:15;;;;;;;6.50;2.45;;;;;;;8.83;59.58;100948.81;5385090;26;20005;-50
2024/04/15 03:47:41;;;;;;;17.23;3.70;;;;;;;8.52;59.71;100937.06;5360335;26;20450;-54
2024/04/15 03:50:07;;;;;;;11.27;3.25;;;;;;;8.57;60.32;100937.56;5351202;26;20005;-49
2024/04/15 03:52:34;;;;;;;15.27;3.20;;;;;;;8.81;59.02;100930.31;5366302;26;20022;-55
2024/04/15 03:55:00;;;;;;;8.75;2.92;;;;;;;8.67;58.85;100927.91;5369577;26;20015;-53
2024/04/15 03:57:26;;;;;;;8.90;3.15;;;;;;;8.70;59.21;100926.81;5368280;26;20000;-53
2024/04/15 03:59:52;;;;;;;11.13;2.90;;;;;;;8.88;58.68;100922.69;5375893;26;20413;-52
2024/04/15 04:02:18;;;;;;;9.30;2.60;;;;;;;8.69;59.64;100914.50;5358152;26;20008;-53
2024/04/15 04:04:47;;;;;;;10.18;3.05;;;;;;;8.67;59.00;100908.47;5367313;26;20001;-51
2024/04/15 04:07:12;;;;;;;11.68;3.25;;;;;;;9.01;58.56;100910.13;5393744;26;20004;-53
2024/04/15 04:09:38;;;;;;;16.20;2.72;;;;;;;8.56;59.49;100908.47;5358367;26;20487;-56
2024/04/15 04:12:04;;;;;;;8.32;2.50;;;;;;;8.93;58.68;100898.41;5365126;26;20005;-51
2024/04/15 04:14:30;;;;;;;11.73;3.40;;;;;;;9.00;58.61;100894.28;5362932;26;20022;-51
2024/04/15 04:16:56;;;;;;;9.32;3.03;;;;;;;9.07;58.29;100891.00;5360493;26;20350;-50
2024/04/15 04:19:24;;;;;;;10.35;3.40;;;;;;;8.89;59.03;100886.34;5359627;26;20015;-55
2024/04/15 04:21:50;;;;;;;9.93;2.75;;;;;;;9.04;58.42;100883.31;5389267;26;20004;-55
2024/04/15 04:24:16;;;;;;;10.50;2.78;;;;;;;9.16;57.92;100887.63;5362927;26;20033;-55
2024/04/15 04:26:42;;;;;;;11.88;3.13;;;;;;;9.07;58.31;100876.88;5368959;26;20436;-48
2024/04/15 04:29:08;;;;;;;11.25;2.70;;;;;;;9.27;57.82;100884.06;5336084;26;20087;-54
2024/04/15 04:31:34;;;;;;;8.85;2.90;;;;;;;8.85;58.62;100870.63;5361363;26;20000;-50
2024/04/15 04:34:00;;;;;;;12.30;2.90;;;;;;;8.91;58.78;100868.47;5387068;26;20011;-52
2024/04/15 04:36:25;;;;;;;8.75;2.85;;;;;;;9.11;58.28;100870.34;5362363;26;20009;-53
2024/04/15 04:38:52;;;;;;;10.27;3.10;;;;;;;9.13;58.29;100871.06;5364779;26;20000;-53
2024/04/15 04:41:19;;;;;;;10.68;2.42;;;;;;;9.02;58.51;100858.66;5393135;26;20015;-52
2024/04/15 04:43:44;;;;;;;7.75;2.53;;;;;;;8.75;59.44;100851.09;5372835;26;20505;-53
2024/04/15 04:46:13;;;;;;;6.90;3.17;;;;;;;8.71;59.79;100848.81;5381394;26;20009;-53
2024/04/15 04:48:39;;;;;;;10.43;3.03;;;;;;;8.70;59.28;100847.13;5359774;26;20096;-56
2024/04/15 04:51:06;;;;;;;9.32;3.05;;;;;;;8.85;59.15;100836.06;5356640;26;20000;-55
2024/04/15 04:53:32;;;;;;;11.30;3.13;;;;;;;8.61;59.75;100831.91;5368441;26;20015;-51
2024/04/15 04:56:07;;;;;;;14.80;3.17;;;;;;;8.76;59.33;100820.03;5368396;26;19996;-56
2024/04/15 04:58:33;;;;;;;9.25;2.63;;;;;;;8.96;58.80;100831.72;5369829;26;20000;-53
2024/04/15 05:01:13;;;;;;;15.18;3.03;;;;;;;8.98;59.03;100821.81;5337199;26;20486;-50
2024/04/15 05:03:44;;;;;;;11.07;2.83;;;;;;;8.87;59.36;100806.72;5383205;26;20011;-50
2024/04/15 05:06:11;;;;;;;15.70;3.03;;;;;;;8.56;60.72;100808.38;5365787;26;20000;-53
2024/04/15 05:08:38;;;;;;;12.43;2.90;;;;;;;8.69;60.47;100803.75;5359376;26;20024;-54
2024/04/15 05:11:04;;;;;;;12.05;3.10;;;;;;;8.86;59.72;100802.38;5356701;26;20004;-53
2024/04/15 05:13:30;;;;;;;11.55;2.80;;;;;;;8.73;60.44;100799.88;5368298;26;20001;-56
2024/04/15 05:16:04;;;;;;;7.85;2.78;;;;;;;8.93;59.31;100794.75;5373096;26;20000;-49
2024/04/15 05:18:29;;;;;;;11.82;3.47;;;;;;;9.03;59.40;100796.53;5363970;26;20001;-57
2024/04/15 05:20:56;;;;;;;13.55;3.47;;;;;;;9.21;58.92;100794.16;5398604;26;20018;-53
2024/04/15 05:23:21;;;;;;;10.57;3.65;;;;;;;9.13;59.89;100785.97;5361094;26;20000;-52
2024/04/15 05:25:47;;;;;;;16.65;3.95;;;;;;;9.12;60.38;100785.16;5367432;26;20363;-53
2024/04/15 05:28:13;;;;;;;12.52;3.80;;;;;;;9.19;59.53;100780.97;5364070;26;20011;-51
2024/04/15 05:30:39;;;;;;;16.30;3.22;;;;;;;9.41;59.51;100774.75;5363560;26;20007;-55
2024/04/15 05:33:04;;;;;;;10.43;3.05;;;;;;;9.49;59.51;100777.63;5359253;26;20466;-56
2024/04/15 05:35:30;;;;;;;12.30;3.20;;;;;;;10.12;57.64;100756.25;5349636;26;20017;-57
2024/04/15 05:37:56;;;;;;;16.05;3.58;;;;;;;10.08;57.26;100753.00;5366362;26;20396;-50
2024/04/15 05:40:22;;;;;;;14.63;3.80;;;;;;;10.18;57.67;100753.03;5355407;26;20008;-53
2024/04/15 05:42:48;;;;;;;14.15;3.05;;;;;;;10.05;57.41;100747.94;5383144;26;20004;-52
2024/04/15 05:45:14;;;;;;;11.52;3.20;;;;;;;10.20;56.85;100751.09;5367719;26;20005;-54
2024/04/15 05:47:39;;;;;;;14.32;4.15;;;;;;;10.01;57.97;100746.53;5365851;26;20000;-56
2024/04/15 05:50:05;;;;;;;17.90;4.13;;;;;;;10.34;57.41;100742.75;5365630;26;20535;-55
2024/04/15 05:52:32;;;;;;;12.05;3.50;;;;;;;9.50;59.93;100750.03;5350709;26;20005;-54
2024/04/15 05:54:57;;;;;;;12.07;3.33;;;;;;;9.64;60.67;100743.53;5369451;26;20506;-57
2024/04/15 05:57:23;;;;;;;15.55;4.10;;;;;;;9.90;60.02;100747.47;5368726;26;20004;-53
2024/04/15 05:59:49;;;;;;;9.63;3.17;;;;;;;10.32;58.38;100740.19;5364277;26;20484;-57
2024/04/15 06:02:15;;;;;;;14.98;4.28;;;;;;;10.57;57.91;100735.38;5335115;26;20000;-55
2024/04/15 06:04:41;;;;;;;14.60;3.90;;;;;;;9.85;60.38;100724.88;5359579;26;20085;-51
2024/04/15 06:07:07;;;;;;;14.20;3.90;;;;;;;10.26;58.96;100738.09;5338415;26;20026;-55
2024/04/15 06:09:32;;;;;;;13.05;3.08;;;;;;;10.27;58.82;100723.78;5366463;26;20015;-50
2024/04/15 06:11:58;;;;;;;15.52;3.70;;;;;;;10.19;59.22;100728.94;5368940;26;20097;-56
2024/04/15 06:14:24;;;;;;;15.95;4.03;;;;;;;10.21;59.35;100724.34;5367932;26;20483;-51
2024/04/15 06:16:50;;;;;;;7.30;3.33;;;;;;;10.14;59.36;100720.53;5393638;26;20082;-52
2024/04/15 06:19:17;;;;;;;10.30;3.55;;;;;;;10.63;59.05;100716.16;5364756;26;20019;-51
2024/04/15 06:21:42;;;;;;;13.57;5.05;;;;;;;10.46;58.78;100714.16;5365475;26;20556;-51
2024/04/15 06:24:08;;;;;;;12.57;3.78;;;;;;;10.55;58.97;100702.72;5395297;26;20011;-52
2024/04/15 06:26:35;;;;;;;10.50;3.40;;;;;;;10.60;58.61;100698.66;5352779;26;20419;-53
2024/04/15 06:29:01;;;;;;;18.35;4.32;;;;;;;10.83;57.89;100691.19;5368798;26;20004;-53
2024/04/15 06:31:27;;;;;;;14.10;4.32;;;;;;;11.02;58.13;100695.72;5365203;26;20461;-54
2024/04/15 06:33:53;;;;;;;13.23;3.83;;;;;;;11.04;57.54;100681.22;5367265;26;20012;-59
2024/04/15 06:36:19;;;;;;;15.30;3.30;;;;;;;11.25;56.84;100681.06;5367723;26;20015;-56
2024/04/15 06:38:46;;;;;;;11.50;3.53;;;;;;;10.74;58.94;100684.91;5353226;26;20340;-58
2024/04/15 06:41:12;;;;;;;13.00;3.70;;;;;;;10.26;60.04;100682.16;5340074;26;20005;-53
2024/04/15 06:43:37;;;;;;;9.55;3.78;;;;;;;11.17;57.42;100681.78;5359932;26;20019;-54
2024/04/15 06:46:03;;;;;;;12.68;3.22;;;;;;;11.43;56.43;100667.84;5370975;26;20081;-52
2024/04/15 06:48:29;;;;;;;14.13;3.65;;;;;;;10.60;59.58;100665.81;5380595;26;20075;-51
2024/04/15 06:50:56;;;;;;;14.00;4.30;;;;;;;11.12;57.57;100665.38;5370777;26;20004;-55
2024/04/15 06:53:22;;;;;;;17.15;4.88;;;;;;;10.86;58.06;100656.28;5354286;26;20016;-52
2024/04/15 06:55:51;;;;;;;14.52;4.15;;;;;;;11.04;57.93;100651.06;5365933;26;20008;-53
2024/04/15 06:58:16;;;;;;;11.25;3.28;;;;;;;11.08;58.29;100649.81;5394068;26;20323;-58
2024/04/15 07:00:42;;;;;;;19.58;4.75;;;;;;;11.42;57.85;100642.16;5359992;26;20037;-52
2024/04/15 07:03:08;;;;;;;9.68;4.38;;;;;;;10.99;58.74;100638.16;5361318;26;20012;-58
2024/04/15 07:05:34;;;;;;;12.43;4.47;;;;;;;11.91;56.14;100643.66;5390455;26;20036;-53
2024/04/15 07:08:03;;;;;;;11.25;3.50;;;;;;;12.08;55.32;100624.16;5358436;26;20391;-49
2024/04/15 07:10:32;;;;;;;11.18;4.55;;;;;;;11.58;56.35;100621.03;5367658;26;20005;-53
2024/04/15 07:13:00;;;;;;;15.45;3.63;;;;;;;11.44;57.72;100613.50;5398222;26;20000;-51
2024/04/15 07:15:25;;;;;;;10.50;3.45;;;;;;;11.59;56.31;100612.84;5367413;26;20022;-55
2024/04/15 07:17:51;;;;;;;15.30;3.92;;;;;;;11.92;55.87;100613.31;5366094;26;20012;-54
2024/04/15 07:20:17;;;;;;;18.23;3.90;;;;;;;11.72;55.63;100599.19;5357201;26;20000;-53
2024/04/15 07:22:45;;;;;;;16.45;3.35;;;;;;;12.23;55.54;100603.13;5369226;26;20099;-53
2024/04/15 07:25:11;;;;;;;17.20;4.65;;;;;;;11.87;55.63;100589.69;5368026;26;20036;-57
2024/04/15 07:27:39;;;;;;;11.00;3.35;;;;;;;12.09;54.42;100575.09;5364503;26;20012;-54
2024/04/15 07:30:06;;;;;;;11.70;3.53;;;;;;;12.32;53.73;100580.84;5356300;26;20015;-55
2024/04/15 07:32:32;;;;;;;6.68;3.40;;;;;;;11.65;55.96;100570.59;5382187;26;20456;-54
2024/04/15 07:34:58;;;;;;;14.75;3.30;;;;;;;12.09;54.69;100563.56;5365028;26;20097;-57
2024/04/15 07:37:23;;;;;;;10.90;3.20;;;;;;;11.97;54.08;100568.28;5369740;26;20004;-50
2024/04/15 07:39:50;;;;;;;11.88;3.40;;;;;;;11.20;56.42;100564.13;5368641;26;20012;-55
2024/04/15 07:42:16;;;;;;;8.57;3.20;;;;;;;11.51;55.90;100561.22;5365612;26;20019;-54
2024/04/15 07:44:46;;;;;;;11.40;3.33;;;;;;;12.48;53.25;100551.56;5363831;26;20012;-56
2024/04/15 07:47:12;;;;;;;15.77;4.10;;;;;;;12.69;52.56;100552.09;5355686;26;20028;-57
2024/04/15 07:49:37;;;;;;;8.65;2.72;;;;;;;12.45;53.07;100548.38;5365330;26;20012;-55
2024/04/15 07:52:04;;;;;;;9.57;3.03;;;;;;;11.92;54.67;100541.22;5366170;26;20000;-55
2024/04/15 07:54:32;;;;;;;11.63;3.10;;;;;;;12.93;52.71;100526.53;5373762;26;19999;-48
2024/04/15 07:56:58;;;;;;;11.45;3.60;;;;;;;12.81;52.90;100519.78;5359787;26;20005;-49
2024/04/15 07:59:24;;;;;;;14.10;3.92;;;;;;;11.62;54.91;100539.69;5369207;26;20015;-50
2024/04/15 08:01:50;;;;;;;12.05;3.90;;;;;;;12.22;54.53;100516.78;5389645;26;20004;-52
2024/04/15 08:04:16;;;;;;;11.75;3.75;;;;;;;12.73;53.24;100512.53;5368043;26;20000;-49
2024/04/15 08:06:41;;;;;;;13.60;3.22;;;;;;;12.24;53.86;100508.63;5356629;26;20484;-54
2024/04/15 08:09:08;;;;;;;12.15;3.47;;;;;;;12.76;52.15;100510.38;5361183;26;20444;-52
2024/04/15 08:11:34;;;;;;;9.52;3.22;;;;;;;12.33;53.48;100510.38;5364364;26;20001;-50
2024/04/15 08:14:01;;;;;;;11.00;3.50;;;;;;;11.95;54.45;100504.34;5369885;26;20343;-51
2024/04/15 08:16:27;;;;;;;15.65;3.60;;;;;;;12.36;53.64;100496.69;5380683;26;20020;-56
2024/04/15 08:18:53;;;;;;;13.73;3.92;;;;;;;12.54;54.03;100478.78;5356192;26;20554;-55
2024/04/15 08:21:20;;;;;;;12.90;3.33;;;;;;;12.93;52.84;100475.72;5363417;26;20024;-51
2024/04/15 08:23:47;;;;;;;12.65;3.83;;;;;;;12.81;52.92;100464.44;5365435;26;20596;-53
2024/04/15 08:26:13;;;;;;;8.77;3.47;;;;;;;12.75;53.14;100451.69;5369211;26;20007;-51
2024/04/15 08:28:39;;;;;;;14.95;3.60;;;;;;;13.56;50.96;100445.91;5359411;26;20024;-54
2024/04/15 08:31:06;;;;;;;11.00;3.92;;;;;;;13.55;50.67;100453.06;5370869;26;20011;-57
2024/04/15 08:33:32;;;;;;;14.07;3.90;;;;;;;13.33;50.17;100433.09;5367657;26;20458;-51
2024/04/15 08:36:00;;;;;;;10.57;3.63;;;;;;;12.87;50.69;100430.91;5343651;26;20019;-54
2024/04/15 08:38:26;;;;;;;14.73;3.70;;;;;;;12.99;50.99;100410.88;5363348;26;20019;-55
2024/04/15 08:40:57;;;;;;;13.50;3.67;;;;;;;13.62;49.93;100403.25;5365777;26;20086;-55
2024/04/15 08:43:27;;;;;;;;;;;;;;;13.62;49.77;100405.09;5396172;26;20438;-52
2024/04/15 08:45:55;;;;;;;10.60;3.65;;;;;;;13.90;48.50;100415.28;5366236;26;19925;-55
2024/04/15 08:48:23;;;;;;;10.63;3.25;;;;;;;12.99;48.87;100414.41;5363393;26;20027;-56
2024/04/15 08:50:49;;;;;;;13.73;3.58;;;;;;;12.53;50.37;100390.75;5372028;26;20016;-53
2024/04/15 08:53:15;;;;;;;11.13;3.17;;;;;;;12.18;51.11;100386.34;5366789;26;20332;-54
2024/04/15 08:55:41;;;;;;;12.63;3.05;;;;;;;12.75;50.08;100376.84;5337642;26;20016;-53
2024/04/15 08:58:11;;;;;;;11.75;3.05;;;;;;;12.29;50.56;100372.72;5369428;26;20413;-54
2024/04/15 09:00:38;;;;;;;11.00;2.92;;;;;;;12.76;49.81;100376.69;5332850;26;20531;-52
2024/04/15 09:03:04;;;;;;;10.13;2.70;;;;;;;12.95;49.63;100377.41;5356784;26;20001;-55
2024/04/15 09:05:31;;;;;;;7.35;2.92;;;;;;;12.73;49.73;100366.31;5363325;26;20001;-52
2024/04/15 09:07:57;;;;;;;6.53;3.30;;;;;;;12.85;49.15;100360.69;5357807;26;20012;-54
2024/04/15 09:10:24;;;;;;;9.52;2.55;;;;;;;13.23;47.73;100361.97;5359491;26;20019;-52
2024/04/15 09:12:50;;;;;;;8.65;3.20;;;;;;;11.61;50.76;100355.66;5332961;26;20444;-51
2024/04/15 09:15:20;;;;;;;9.43;2.65;;;;;;;11.85;49.56;100339.88;5289657;26;20012;-52
2024/04/15 09:17:47;;;;;;;9.65;2.45;;;;;;;12.45;48.24;100329.22;5366002;26;20331;-53
2024/04/15 09:20:14;;;;;;;6.43;2.33;;;;;;;12.61;47.92;100346.19;5369672;26;20360;-53
2024/04/15 09:22:40;;;;;;;12.48;2.30;;;;;;;12.61;48.83;100327.47;5397910;26;20004;-52
2024/04/15 09:25:06;;;;;;;7.40;2.25;;;;;;;13.53;47.25;100313.16;5334119;26;20028;-54
2024/04/15 09:27:32;;;;;;;6.15;2.30;;;;;;;13.64;45.63;100303.97;5338054;26;20015;-54
2024/04/15 09:30:01;;;;;;;6.93;2.65;;;;;;;13.15;46.61;100299.41;5367140;26;20004;-55
2024/04/15 09:32:27;;;;;;;5.13;1.80;;;;;;;12.95;46.33;100292.66;5366869;26;20001;-57
2024/04/15 09:35:04;;;;;;;6.57;1.50;;;;;;;13.28;44.41;100295.44;5338321;26;20004;-53
2024/04/15 09:37:34;;;;;;;10.60;2.08;;;;;;;13.75;43.91;100287.59;5395070;26;20008;-56
2024/04/15 09:40:04;;;;;;;7.85;2.17;;;;;;;13.10;43.95;100304.41;5392659;26;20024;-54
2024/04/15 09:42:31;;;;;;;6.83;1.60;;;;;;;12.92;45.15;100286.81;5369199;26;20000;-52
2024/04/15 09:44:57;;;;;;;3.13;1.60;;;;;;;12.88;44.65;100282.81;5341873;26;20475;-55
2024/04/15 09:47:23;;;;;;;4.65;1.90;;;;;;;13.22;44.07;100254.09;5347518;26;20013;-54
2024/04/15 09:49:50;;;;;;;7.00;1.70;;;;;;;13.88;43.85;100258.44;5364498;26;20004;-51
2024/04/15 09:52:20;;;;;;;7.60;1.70;;;;;;;13.01;44.64;100259.09;5365433;26;20000;-54
2024/04/15 09:54:46;;;;;;;;;;;;;;;13.35;44.47;100243.75;5376928;26;20747;-55
2024/04/15 09:57:18;;;;;;;5.85;1.55;;;;;;;13.91;43.65;100236.66;5365679;26;19932;-54
2024/04/15 09:59:45;;;;;;;7.18;1.80;;;;;;;13.56;43.38;100223.69;5368489;26;21106;-54
2024/04/15 10:02:27;;;;;;;7.72;1.88;;;;;;;13.17;44.54;100218.97;5306364;26;20015;-54
2024/04/15 10:05:01;;;;;;;6.65;1.50;;;;;;;13.28;44.08;100215.16;5371496;26;21129;-49
2024/04/15 10:07:29;;;;;;;7.63;1.67;;;;;;;13.01;43.26;100208.28;5375371;26;20427;-54
2024/04/15 10:09:58;;;;;;;5.75;2.28;;;;;;;12.82;44.15;100190.69;5352810;26;20005;-54
2024/04/15 10:12:24;;;;;;;4.95;1.77;;;;;;;12.38;44.66;100192.75;5357752;26;20011;-50
2024/04/15 10:14:50;;;;;;;6.55;1.25;;;;;;;12.56;44.03;100171.22;5357545;26;20000;-54
2024/04/15 10:17:18;;;;;;;7.63;1.42;;;;;;;12.54;44.00;100173.22;5365986;26;20000;-58
2024/04/15 10:19:47;;;;;;;6.60;1.40;;;;;;;12.64;43.83;100158.75;5357935;26;20420;-54
2024/04/15 10:22:15;;;;;;;7.72;1.67;;;;;;;13.08;43.36;100161.16;5370263;26;20001;-53
2024/04/15 10:24:41;;;;;;;4.50;1.20;;;;;;;13.23;42.69;100135.34;5367342;26;20008;-51
2024/04/15 10:27:10;;;;;;;8.32;1.67;;;;;;;13.28;43.59;100135.72;5358418;26;20010;-50
2024/04/15 10:29:40;;;;;;;6.22;1.48;;;;;;;13.85;42.54;100138.25;5369095;26;20018;-53
2024/04/15 10:32:08;;;;;;;6.88;2.15;;;;;;;14.22;41.81;100118.84;5368014;26;19996;-57
2024/04/15 10:34:40;;;;;;;7.18;1.60;;;;;;;13.96;42.06;100129.03;5363344;26;20007;-55
2024/04/15 10:37:12;;;;;;;9.23;1.70;;;;;;;13.00;44.23;100123.69;5365247;26;20004;-57
2024/04/15 10:39:47;;;;;;;9.02;1.50;;;;;;;12.84;43.81;100115.66;5360490;26;19996;-56
2024/04/15 10:42:14;;;;;;;8.95;1.80;;;;;;;13.46;43.24;100122.13;5365191;26;20004;-55
2024/04/15 10:44:41;;;;;;;7.10;1.52;;;;;;;12.34;45.94;100105.88;5360231;26;20000;-56
2024/04/15 10:47:06;;;;;;;14.82;2.22;;;;;;;12.41;45.11;100093.53;5346648;26;20001;-52
2024/04/15 10:49:32;;;;;;;8.00;1.70;;;;;;;11.96;45.95;100093.94;5354434;26;20005;-51
2024/04/15 10:51:58;;;;;;;7.78;1.77;;;;;;;12.31;45.62;100093.69;5364274;26;19996;-53
2024/04/15 10:54:24;;;;;;;7.97;1.65;;;;;;;12.24;46.33;100100.69;5368303;26;20015;-55
2024/04/15 10:56:50;;;;;;;12.40;2.67;;;;;;;11.83;46.11;100066.84;5365298;26;20032;-53
2024/04/15 10:59:16;;;;;;;8.25;2.50;;;;;;;11.75;47.17;100066.81;5364585;26;20005;-54
2024/04/15 11:01:46;;;;;;;9.65;2.60;;;;;;;12.04;46.23;100059.25;5348514;26;20019;-52
2024/04/15 11:04:11;;;;;;;9.65;2.45;;;;;;;12.10;46.40;100047.91;5340641;26;20386;-55
2024/04/15 11:06:37;;;;;;;5.97;2.60;;;;;;;11.68;48.89;100041.78;5349775;26;20034;-48
2024/04/15 11:09:07;;;;;;;8.98;2.92;;;;;;;12.10;50.29;100047.91;5365791;26;20443;-57
2024/04/15 11:11:33;;;;;;;9.00;3.63;;;;;;;12.11;51.91;100044.25;5364913;26;20424;-54
2024/04/15 11:14:00;;;;;;;12.60;3.53;;;;;;;11.20;55.16;100041.34;5364722;26;20004;-54
2024/04/15 11:16:26;;;;;;;6.65;3.22;;;;;;;11.05;56.30;100042.94;5366878;26;20004;-50
2024/04/15 11:18:52;;;;;;;15.15;4.10;;;;;;;11.08;57.81;100025.78;5365140;26;20000;-48
2024/04/15 11:21:18;;;;;;;15.32;4.15;;;;;;;10.53;61.22;100031.41;5387701;26;20004;-53